Time;durP1;ratioP1;P1;durP2;ratioP2;P2;SDS_P1;SDS_P2;PMS_P1;PMS_P2;Temp;Humidity;BMP_temperature;BMP_pressure;BME280_temperature;BME280_humidity;BME280_pressure;Samples;Min_cycle;Max_cycle;Signal;HPM_P1;HPM_P2
2024/02/28 00:00:12;;;;;;;12.52;9.30;;;;;21.70;100850.00;;;;2060618;28;20206;-69
2024/02/28 00:01:12;;;;;;;15.43;10.33;;;;;21.60;100852.00;;;;2053855;28;20226;-69
2024/02/28 00:02:12;;;;;;;12.77;9.70;;;;;21.60;100859.00;;;;2063106;28;20681;-69
2024/02/28 00:03:13;;;;;;;13.13;9.33;;;;;21.70;100858.00;;;;2062410;28;20651;-69
2024/02/28 00:04:13;;;;;;;12.40;9.13;;;;;21.70;100858.00;;;;2061817;28;20733;-69
2024/02/28 00:05:14;;;;;;;14.53;9.57;;;;;21.60;100853.00;;;;2063826;28;20282;-69
2024/02/28 00:06:16;;;;;;;11.90;9.23;;;;;21.70;100856.00;;;;2045758;28;20228;-69
2024/02/28 00:07:18;;;;;;;14.13;10.27;;;;;21.60;100861.00;;;;2054393;28;20227;-69
2024/02/28 00:08:20;;;;;;;12.75;9.35;;;;;21.60;100866.00;;;;2054886;28;20226;-69
2024/02/28 00:09:20;;;;;;;12.15;8.93;;;;;21.60;100864.00;;;;2062520;28;20210;-69
2024/02/28 00:10:23;;;;;;;12.00;9.17;;;;;21.60;100856.00;;;;2063721;28;20215;-69
2024/02/28 00:11:24;;;;;;;12.50;9.40;;;;;21.60;100848.00;;;;2052518;28;20233;-69
2024/02/28 00:12:27;;;;;;;13.70;9.00;;;;;21.60;100857.00;;;;2056820;28;20590;-69
2024/02/28 00:13:27;;;;;;;11.00;8.20;;;;;21.60;100853.00;;;;2063756;28;20705;-69
2024/02/28 00:14:27;;;;;;;13.33;9.47;;;;;21.60;100851.00;;;;2062852;28;20210;-69
2024/02/28 00:15:28;;;;;;;12.50;8.67;;;;;21.60;100858.00;;;;2063823;28;20218;-69
2024/02/28 00:16:28;;;;;;;14.53;9.80;;;;;21.60;100854.00;;;;2053213;28;20257;-69
2024/02/28 00:17:28;;;;;;;13.03;8.80;;;;;21.60;100856.00;;;;2063418;28;20222;-69
2024/02/28 00:18:31;;;;;;;12.43;9.37;;;;;21.60;100856.00;;;;2062254;28;20211;-69
2024/02/28 00:19:32;;;;;;;14.82;9.48;;;;;21.60;100783.00;;;;2063751;28;20276;-69
2024/02/28 00:20:32;;;;;;;12.93;8.68;;;;;21.60;100850.00;;;;2060593;28;20246;-69
2024/02/28 00:21:32;;;;;;;12.77;9.40;;;;;21.60;100858.00;;;;2053166;28;20222;-69
2024/02/28 00:22:33;;;;;;;12.80;8.80;;;;;21.50;100864.00;;;;2063777;28;20210;-69
2024/02/28 00:23:33;;;;;;;11.90;8.63;;;;;21.50;100846.00;;;;2062791;28;20269;-69
2024/02/28 00:24:34;;;;;;;12.43;8.20;;;;;21.50;100861.00;;;;2062990;28;20211;-69
2024/02/28 00:25:34;;;;;;;12.70;9.43;;;;;21.50;100862.00;;;;2061698;28;20206;-68
2024/02/28 00:26:35;;;;;;;11.67;8.00;;;;;21.50;100860.00;;;;2053804;28;20218;-68
2024/02/28 00:27:35;;;;;;;11.53;8.00;;;;;21.50;100858.00;;;;2063202;28;20473;-68
2024/02/28 00:28:36;;;;;;;11.17;8.20;;;;;21.50;100854.00;;;;2062786;28;20211;-68
2024/02/28 00:29:36;;;;;;;13.13;9.47;;;;;21.50;100853.00;;;;2063626;28;20591;-68
2024/02/28 00:30:37;;;;;;;10.80;7.80;;;;;21.50;100849.00;;;;2063036;28;20939;-68
2024/02/28 00:31:37;;;;;;;11.03;7.50;;;;;21.50;100858.00;;;;2053703;28;20222;-69
2024/02/28 00:32:37;;;;;;;12.10;8.60;;;;;21.50;100855.00;;;;2046534;28;20216;-69
2024/02/28 00:33:38;;;;;;;14.13;9.47;;;;;21.50;100853.00;;;;2045458;28;20220;-69
2024/02/28 00:34:38;;;;;;;12.10;8.60;;;;;21.50;100848.00;;;;2063364;28;20304;-69
2024/02/28 00:35:39;;;;;;;13.43;8.70;;;;;21.50;100855.00;;;;2062983;28;20224;-69
2024/02/28 00:36:39;;;;;;;11.57;8.70;;;;;21.50;100862.00;;;;2053989;28;20425;-69
2024/02/28 00:37:40;;;;;;;11.87;8.23;;;;;21.50;100846.00;;;;2063204;28;20481;-69
2024/02/28 00:38:40;;;;;;;10.83;8.10;;;;;21.50;100835.00;;;;2063629;28;20223;-69
2024/02/28 00:39:41;;;;;;;10.37;7.40;;;;;21.50;100843.00;;;;2060820;28;20215;-69
2024/02/28 00:40:41;;;;;;;11.20;7.93;;;;;21.50;100854.00;;;;2054307;28;20793;-69
2024/02/28 00:41:41;;;;;;;10.40;7.60;;;;;21.50;100850.00;;;;2045444;28;20699;-69
2024/02/28 00:42:42;;;;;;;11.77;8.23;;;;;21.50;100851.00;;;;2063054;28;20219;-69
2024/02/28 00:43:42;;;;;;;13.57;8.37;;;;;21.40;100849.00;;;;2063527;28;20214;-69
2024/02/28 00:44:42;;;;;;;10.70;7.40;;;;;21.40;100852.00;;;;2060716;28;20632;-69
2024/02/28 00:45:44;;;;;;;11.27;7.73;;;;;21.40;100853.00;;;;2059304;28;20674;-69
2024/02/28 00:46:44;;;;;;;11.02;7.70;;;;;21.50;100849.00;;;;2051541;28;20218;-69
2024/02/28 00:47:44;;;;;;;8.87;7.23;;;;;21.40;100847.00;;;;2062923;28;20221;-69
2024/02/28 00:48:45;;;;;;;11.67;7.80;;;;;21.50;100838.00;;;;2063614;28;20222;-69
2024/02/28 00:49:45;;;;;;;11.27;7.93;;;;;21.50;100844.00;;;;2054078;28;20219;-69
2024/02/28 00:50:45;;;;;;;10.40;7.27;;;;;21.40;100844.00;;;;2054658;28;20247;-69
2024/02/28 00:51:46;;;;;;;11.20;7.30;;;;;21.40;100836.00;;;;2051465;28;20231;-69
2024/02/28 00:52:46;;;;;;;10.20;7.23;;;;;21.40;100846.00;;;;2063423;28;20821;-69
2024/02/28 00:53:46;;;;;;;13.77;8.80;;;;;21.40;100831.00;;;;2063544;28;20222;-69
2024/02/28 00:54:47;;;;;;;9.27;7.20;;;;;21.40;100827.00;;;;2054181;28;20262;-69
2024/02/28 00:55:47;;;;;;;10.93;7.73;;;;;21.40;100849.00;;;;2054780;28;20351;-69
2024/02/28 00:56:47;;;;;;;10.50;7.63;;;;;21.40;100850.00;;;;2051403;28;20211;-69
2024/02/28 00:57:48;;;;;;;10.20;7.67;;;;;21.40;100849.00;;;;2063228;28;20932;-69
2024/02/28 00:58:48;;;;;;;9.13;7.40;;;;;21.40;100845.00;;;;2063411;28;20233;-69
2024/02/28 00:59:48;;;;;;;8.80;6.90;;;;;21.40;100843.00;;;;2062944;28;20247;-69
2024/02/28 01:00:49;;;;;;;10.27;6.80;;;;;21.40;100832.00;;;;2064839;28;20222;-69
2024/02/28 01:01:49;;;;;;;9.10;6.73;;;;;21.40;100844.00;;;;2054390;28;20233;-69
2024/02/28 01:02:49;;;;;;;10.73;7.50;;;;;21.40;100835.00;;;;2065160;28;20215;-69
2024/02/28 01:03:50;;;;;;;12.53;7.70;;;;;21.40;100845.00;;;;2064919;28;20709;-69
2024/02/28 01:04:50;;;;;;;8.63;6.67;;;;;21.40;100844.00;;;;2055299;28;20223;-69
2024/02/28 01:05:51;;;;;;;11.20;7.50;;;;;21.40;100836.00;;;;2056243;28;20238;-69
2024/02/28 01:06:51;;;;;;;10.27;7.17;;;;;21.40;100851.00;;;;2054865;28;20214;-69
2024/02/28 01:07:51;;;;;;;10.73;7.30;;;;;21.40;100852.00;;;;2060301;28;20246;-69
2024/02/28 01:08:52;;;;;;;9.20;6.60;;;;;21.40;100854.00;;;;2063918;28;20277;-69
2024/02/28 01:09:52;;;;;;;8.80;7.30;;;;;21.30;100851.00;;;;2065055;28;20223;-69
2024/02/28 01:10:52;;;;;;;10.00;7.07;;;;;21.40;100850.00;;;;2064858;28;20249;-69
2024/02/28 01:11:53;;;;;;;10.17;7.37;;;;;21.30;100853.00;;;;2053265;28;20658;-69
2024/02/28 01:12:53;;;;;;;10.73;7.67;;;;;21.30;100866.00;;;;2062240;28;20215;-69
2024/02/28 01:13:53;;;;;;;10.20;7.87;;;;;21.30;100858.00;;;;2064288;28;20558;-69
2024/02/28 01:14:54;;;;;;;9.33;6.77;;;;;21.30;100861.00;;;;2064825;28;20626;-69
2024/02/28 01:15:54;;;;;;;9.53;7.17;;;;;21.40;100852.00;;;;2064800;28;20221;-69
2024/02/28 01:16:54;;;;;;;9.73;6.77;;;;;21.40;100860.00;;;;2054832;28;20666;-69
2024/02/28 01:17:55;;;;;;;10.90;6.60;;;;;21.30;100855.00;;;;2069070;28;20272;-69
2024/02/28 01:18:55;;;;;;;10.07;6.50;;;;;21.30;100791.00;;;;2067245;28;20235;-69
2024/02/28 01:19:55;;;;;;;10.10;7.47;;;;;21.30;100854.00;;;;2064979;28;20819;-69
2024/02/28 01:20:56;;;;;;;8.97;7.00;;;;;21.30;100852.00;;;;2064306;28;20757;-69
2024/02/28 01:21:56;;;;;;;10.33;6.97;;;;;21.30;100852.00;;;;2055306;28;20219;-69
2024/02/28 01:22:57;;;;;;;8.60;6.50;;;;;21.30;100853.00;;;;2054694;28;20223;-69
2024/02/28 01:23:57;;;;;;;10.63;7.57;;;;;21.30;100845.00;;;;2047632;28;20719;-69
2024/02/28 01:24:57;;;;;;;8.90;6.43;;;;;21.30;100816.00;;;;2056207;28;20226;-69
2024/02/28 01:25:58;;;;;;;9.67;6.80;;;;;21.30;100852.00;;;;2059699;28;20886;-69
2024/02/28 01:26:58;;;;;;;8.03;5.80;;;;;21.30;100827.00;;;;2056341;28;20699;-69
2024/02/28 01:27:58;;;;;;;8.50;6.53;;;;;21.30;100864.00;;;;2044390;28;20643;-69
2024/02/28 01:28:59;;;;;;;9.17;6.60;;;;;21.30;100862.00;;;;2052640;28;20700;-69
2024/02/28 01:29:59;;;;;;;8.50;6.43;;;;;21.30;100867.00;;;;2064978;28;20246;-69
2024/02/28 01:31:00;;;;;;;7.70;6.10;;;;;21.30;100793.00;;;;2045997;28;20219;-69
2024/02/28 01:32:00;;;;;;;9.77;6.90;;;;;21.30;100868.00;;;;2047796;28;20224;-69
2024/02/28 01:33:00;;;;;;;9.37;6.50;;;;;21.30;100874.00;;;;2055817;28;20223;-69
2024/02/28 01:34:01;;;;;;;10.17;6.90;;;;;21.30;100866.00;;;;2064391;28;20222;-69
2024/02/28 01:35:04;;;;;;;8.43;6.83;;;;;21.20;100875.00;;;;2052757;28;20311;-69
2024/02/28 01:36:06;;;;;;;8.82;6.43;;;;;21.20;100884.00;;;;2045328;28;20306;-69
2024/02/28 01:37:06;;;;;;;8.15;6.15;;;;;21.20;100877.00;;;;2064514;28;20234;-69
2024/02/28 01:38:07;;;;;;;8.87;6.40;;;;;21.20;100876.00;;;;2062066;28;20207;-69
2024/02/28 01:39:08;;;;;;;8.57;6.40;;;;;21.30;100873.00;;;;2070259;28;20224;-69
2024/02/28 01:40:08;;;;;;;9.23;6.63;;;;;21.20;100880.00;;;;2066533;28;20210;-69
2024/02/28 01:41:09;;;;;;;10.67;7.30;;;;;21.20;100839.00;;;;2054957;28;20468;-69
2024/02/28 01:42:09;;;;;;;7.33;6.00;;;;;21.20;100874.00;;;;2055340;28;20710;-69
2024/02/28 01:43:11;;;;;;;8.63;6.23;;;;;21.30;100879.00;;;;2046097;28;20320;-69
2024/02/28 01:44:11;;;;;;;9.35;6.43;;;;;21.30;100825.00;;;;2054987;28;20290;-69
2024/02/28 01:45:13;;;;;;;9.27;6.40;;;;;21.20;100854.00;;;;2055972;28;20703;-69
2024/02/28 01:46:24;;;;;;;8.73;6.28;;;;;21.20;100869.00;;;;2038514;28;20866;-69
2024/02/28 01:47:24;;;;;;;8.05;6.05;;;;;21.20;100813.00;;;;2048543;28;20722;-69
2024/02/28 01:48:24;;;;;;;10.00;6.50;;;;;21.20;100869.00;;;;2055584;28;20216;-69
2024/02/28 01:49:24;;;;;;;10.00;6.70;;;;;21.20;100864.00;;;;2051159;28;20352;-69
2024/02/28 01:50:25;;;;;;;8.83;6.67;;;;;21.20;100764.00;;;;2055998;28;20219;-69
2024/02/28 01:51:29;;;;;;;7.67;6.13;;;;;21.20;100862.00;;;;2038247;28;20228;-69
2024/02/28 01:52:30;;;;;;;9.68;6.65;;;;;21.20;100859.00;;;;2040976;28;20695;-69
2024/02/28 01:53:30;;;;;;;7.10;5.70;;;;;21.20;100864.00;;;;2062235;28;20222;-69
2024/02/28 01:54:30;;;;;;;8.43;6.10;;;;;21.20;100833.00;;;;2065752;28;20806;-69
2024/02/28 01:55:31;;;;;;;7.90;6.07;;;;;21.20;100850.00;;;;2056150;28;20758;-69
2024/02/28 01:56:31;;;;;;;8.10;5.90;;;;;21.20;100790.00;;;;2050210;28;20697;-69
2024/02/28 01:57:32;;;;;;;7.87;5.80;;;;;21.20;100852.00;;;;2056017;28;20687;-69
2024/02/28 01:58:32;;;;;;;7.27;5.60;;;;;21.00;100849.00;;;;2048151;28;20891;-69
2024/02/28 01:59:33;;;;;;;7.80;5.53;;;;;21.20;100846.00;;;;2046561;28;20455;-69
2024/02/28 02:00:33;;;;;;;8.43;5.60;;;;;21.20;100852.00;;;;2055011;28;20219;-69
2024/02/28 02:01:33;;;;;;;7.93;5.67;;;;;21.20;100829.00;;;;2047728;28;20748;-69
2024/02/28 02:02:34;;;;;;;7.73;5.93;;;;;21.20;100837.00;;;;2056045;28;20578;-69
2024/02/28 02:03:34;;;;;;;9.30;6.60;;;;;21.20;100844.00;;;;2046989;28;20216;-69
2024/02/28 02:04:34;;;;;;;6.83;5.40;;;;;21.20;100808.00;;;;2047417;28;20236;-69
2024/02/28 02:05:35;;;;;;;8.47;6.00;;;;;21.20;100852.00;;;;2047918;28;20224;-69
2024/02/28 02:06:37;;;;;;;7.90;5.93;;;;;21.20;100719.00;;;;2045649;28;20239;-69
2024/02/28 02:07:39;;;;;;;8.32;6.03;;;;;21.20;100848.00;;;;2046860;28;20315;-69
2024/02/28 02:08:39;;;;;;;7.35;5.60;;;;;21.10;100805.00;;;;2046795;28;20672;-69
2024/02/28 02:09:40;;;;;;;8.33;6.23;;;;;21.20;100848.00;;;;2049106;28;20226;-69
2024/02/28 02:10:41;;;;;;;8.20;5.50;;;;;21.20;100836.00;;;;2055743;28;20215;-69
2024/02/28 02:11:41;;;;;;;11.65;6.18;;;;;21.10;100837.00;;;;2042464;28;20234;-69
2024/02/28 02:12:42;;;;;;;7.17;5.60;;;;;21.10;100838.00;;;;2049123;28;20699;-69
2024/02/28 02:13:49;;;;;;;9.60;6.60;;;;;21.10;100717.00;;;;2062760;28;20690;-69
2024/02/28 02:14:50;;;;;;;8.75;5.80;;;;;21.20;100845.00;;;;2064384;28;20575;-69
2024/02/28 02:15:50;;;;;;;7.47;5.50;;;;;21.20;100847.00;;;;2063914;28;20219;-69
2024/02/28 02:16:50;;;;;;;7.60;6.30;;;;;20.90;100847.00;;;;2044962;28;20291;-69
2024/02/28 02:17:51;;;;;;;8.50;6.40;;;;;21.10;100849.00;;;;2055266;28;20306;-69
2024/02/28 02:18:51;;;;;;;7.27;5.60;;;;;21.10;100845.00;;;;2064436;28;20215;-69
2024/02/28 02:19:52;;;;;;;8.40;6.00;;;;;21.10;100853.00;;;;2061232;28;20249;-69
2024/02/28 02:20:56;;;;;;;9.15;6.15;;;;;21.10;100852.00;;;;2063899;28;20215;-69
2024/02/28 02:21:59;;;;;;;7.72;5.45;;;;;21.10;100852.00;;;;2054762;28;20249;-69
2024/02/28 02:22:59;;;;;;;7.70;5.78;;;;;21.10;100857.00;;;;2053715;28;20337;-69
2024/02/28 02:24:00;;;;;;;8.00;5.63;;;;;21.20;100851.00;;;;2053817;28;20988;-69
2024/02/28 02:25:03;;;;;;;7.67;5.83;;;;;21.10;100851.00;;;;2064468;28;20593;-69
2024/02/28 02:26:03;;;;;;;9.48;5.57;;;;;21.10;100852.00;;;;2053965;28;20253;-69
2024/02/28 02:27:06;;;;;;;8.70;6.33;;;;;21.10;100853.00;;;;2063988;28;20705;-69
2024/02/28 02:28:06;;;;;;;7.40;5.30;;;;;21.10;100860.00;;;;2063360;28;20720;-69
2024/02/28 02:29:08;;;;;;;7.67;5.77;;;;;21.10;100859.00;;;;2064278;28;20207;-69
2024/02/28 02:30:09;;;;;;;8.38;6.40;;;;;21.10;100846.00;;;;2063930;28;20203;-69
2024/02/28 02:31:12;;;;;;;8.13;6.17;;;;;21.10;100832.00;;;;2046002;28;20262;-69
2024/02/28 02:32:12;;;;;;;7.57;5.88;;;;;21.10;100852.00;;;;2042598;29;20996;-69
2024/02/28 02:33:12;;;;;;;8.53;6.17;;;;;21.10;100848.00;;;;2055307;28;20212;-69
2024/02/28 02:34:13;;;;;;;7.73;6.07;;;;;21.10;100851.00;;;;2064170;28;20229;-69
2024/02/28 02:35:13;;;;;;;8.60;5.93;;;;;21.10;100858.00;;;;2063761;28;20207;-69
2024/02/28 02:36:13;;;;;;;8.23;5.77;;;;;21.10;100850.00;;;;2054845;28;20250;-69
2024/02/28 02:37:14;;;;;;;7.50;5.00;;;;;21.10;100850.00;;;;2062086;28;20211;-69
2024/02/28 02:38:14;;;;;;;8.33;6.17;;;;;21.10;100855.00;;;;2064294;28;20199;-69
2024/02/28 02:39:14;;;;;;;6.90;5.67;;;;;20.90;100853.00;;;;2064322;28;20273;-69
2024/02/28 02:40:15;;;;;;;7.93;5.80;;;;;21.10;100851.00;;;;2063862;28;20230;-69
2024/02/28 02:41:15;;;;;;;8.10;5.70;;;;;21.10;100850.00;;;;2054600;28;20226;-69
2024/02/28 02:42:15;;;;;;;7.80;6.13;;;;;21.00;100836.00;;;;2054941;28;20220;-69
2024/02/28 02:43:16;;;;;;;9.10;5.57;;;;;21.10;100844.00;;;;2055623;28;20282;-69
2024/02/28 02:44:16;;;;;;;7.90;5.90;;;;;21.00;100844.00;;;;2063366;28;20805;-69
2024/02/28 02:45:16;;;;;;;7.63;5.03;;;;;21.10;100847.00;;;;2064256;28;20210;-69
2024/02/28 02:46:17;;;;;;;9.13;5.63;;;;;21.00;100847.00;;;;2051713;28;20215;-69
2024/02/28 02:47:17;;;;;;;8.20;5.90;;;;;21.00;100846.00;;;;2062330;28;20215;-69
2024/02/28 02:48:17;;;;;;;7.17;5.30;;;;;21.00;100859.00;;;;2064358;28;20970;-69
2024/02/28 02:49:18;;;;;;;8.30;5.70;;;;;21.00;100856.00;;;;2063329;28;20585;-69
2024/02/28 02:50:19;;;;;;;8.40;5.63;;;;;21.00;100854.00;;;;2064240;28;20630;-69
2024/02/28 02:51:19;;;;;;;8.97;6.10;;;;;21.00;100855.00;;;;2054252;28;20301;-69
2024/02/28 02:52:20;;;;;;;8.17;5.47;;;;;21.10;100858.00;;;;2063868;28;20222;-69
2024/02/28 02:53:21;;;;;;;8.00;5.90;;;;;21.10;100857.00;;;;2067999;28;20228;-69
2024/02/28 02:54:21;;;;;;;8.60;6.13;;;;;21.00;100855.00;;;;2064539;28;20241;-69
2024/02/28 02:55:21;;;;;;;8.40;5.80;;;;;21.00;100862.00;;;;2063805;28;20691;-69
2024/02/28 02:56:21;;;;;;;8.73;5.97;;;;;21.00;100863.00;;;;2053498;28;20219;-69
2024/02/28 02:57:22;;;;;;;10.43;6.43;;;;;21.00;100795.00;;;;2064162;28;20219;-69
2024/02/28 02:58:22;;;;;;;8.27;6.17;;;;;21.10;100857.00;;;;2058106;28;20243;-69
2024/02/28 02:59:22;;;;;;;9.10;5.80;;;;;21.00;100860.00;;;;2054864;28;20216;-69
2024/02/28 03:00:23;;;;;;;9.33;5.83;;;;;21.00;100872.00;;;;2054474;28;20219;-69
2024/02/28 03:01:23;;;;;;;9.83;6.33;;;;;21.00;100873.00;;;;2053916;28;20330;-69
2024/02/28 03:02:23;;;;;;;8.23;5.20;;;;;21.00;100875.00;;;;2063722;28;20223;-69
2024/02/28 03:03:24;;;;;;;9.10;6.50;;;;;21.00;100874.00;;;;2063567;28;20273;-69
2024/02/28 03:04:24;;;;;;;10.30;5.90;;;;;21.00;100869.00;;;;2055019;28;20212;-69
2024/02/28 03:05:24;;;;;;;9.43;6.23;;;;;21.00;100872.00;;;;2054307;28;20222;-69
2024/02/28 03:06:25;;;;;;;8.50;6.30;;;;;21.00;100792.00;;;;2054270;28;20302;-69
2024/02/28 03:07:25;;;;;;;10.03;5.90;;;;;21.00;100868.00;;;;2054509;28;20224;-69
2024/02/28 03:08:25;;;;;;;10.43;6.50;;;;;21.00;100871.00;;;;2054362;28;20239;-69
2024/02/28 03:09:26;;;;;;;11.27;6.60;;;;;21.00;100873.00;;;;2064091;28;20219;-69
2024/02/28 03:10:26;;;;;;;10.73;6.47;;;;;21.00;100871.00;;;;2063079;28;20358;-69
2024/02/28 03:11:26;;;;;;;10.10;6.50;;;;;21.00;100873.00;;;;2054502;28;20215;-69
2024/02/28 03:12:27;;;;;;;9.73;5.97;;;;;21.00;100871.00;;;;2064029;28;20261;-69
2024/02/28 03:13:28;;;;;;;10.57;6.60;;;;;21.00;100864.00;;;;2058951;28;20222;-69
2024/02/28 03:14:28;;;;;;;9.93;6.43;;;;;21.00;100880.00;;;;2056256;28;20730;-69
2024/02/28 03:15:29;;;;;;;9.80;6.53;;;;;21.00;100869.00;;;;2063551;28;25445;-69
2024/02/28 03:16:29;;;;;;;13.60;7.20;;;;;21.00;100870.00;;;;2054327;28;20227;-69
2024/02/28 03:17:29;;;;;;;9.57;7.00;;;;;21.00;100874.00;;;;2063889;28;20280;-69
2024/02/28 03:18:30;;;;;;;10.83;6.77;;;;;21.00;100880.00;;;;2062730;28;20227;-69
2024/02/28 03:19:31;;;;;;;10.43;6.77;;;;;21.00;100870.00;;;;2064029;28;20230;-69
2024/02/28 03:20:31;;;;;;;10.77;6.90;;;;;21.00;100872.00;;;;2063418;28;20474;-69
2024/02/28 03:21:31;;;;;;;10.10;6.57;;;;;21.00;100846.00;;;;2054411;28;20219;-69
2024/02/28 03:22:31;;;;;;;11.03;7.10;;;;;21.00;100700.00;;;;2062975;28;20215;-69
2024/02/28 03:23:32;;;;;;;11.20;6.80;;;;;21.00;100875.00;;;;2063974;28;20219;-69
2024/02/28 03:24:36;;;;;;;10.57;7.47;;;;;21.00;100882.00;;;;2056113;28;20243;-69
2024/02/28 03:25:36;;;;;;;10.18;7.00;;;;;20.90;100878.00;;;;2051591;28;20450;-69
2024/02/28 03:26:36;;;;;;;10.53;6.97;;;;;21.00;100877.00;;;;2046055;28;20794;-69
2024/02/28 03:27:37;;;;;;;10.43;7.30;;;;;21.00;100877.00;;;;2063268;28;20686;-69
2024/02/28 03:28:37;;;;;;;9.13;6.60;;;;;21.00;100877.00;;;;2063497;28;20804;-69
2024/02/28 03:29:38;;;;;;;9.77;7.17;;;;;21.00;100884.00;;;;2062734;28;20230;-69
2024/02/28 03:30:38;;;;;;;9.77;6.80;;;;;21.00;100880.00;;;;2053899;28;20231;-69
2024/02/28 03:31:39;;;;;;;10.50;6.90;;;;;20.90;100877.00;;;;2054208;28;20210;-69
2024/02/28 03:32:39;;;;;;;9.93;7.22;;;;;21.00;100884.00;;;;2061428;28;20299;-69
2024/02/28 03:33:39;;;;;;;12.40;7.83;;;;;21.00;100871.00;;;;2063164;28;20875;-69
2024/02/28 03:34:40;;;;;;;10.30;7.20;;;;;21.00;100877.00;;;;2059270;28;20635;-69
2024/02/28 03:35:40;;;;;;;10.67;7.30;;;;;20.90;100818.00;;;;2061723;28;20717;-69
2024/02/28 03:36:40;;;;;;;10.93;7.80;;;;;20.90;100878.00;;;;2053299;28;20674;-69
2024/02/28 03:37:41;;;;;;;12.30;7.40;;;;;21.00;100877.00;;;;2063763;28;20218;-69
2024/02/28 03:38:41;;;;;;;8.00;5.90;;;;;20.90;100879.00;;;;2064035;28;20322;-69
2024/02/28 03:39:41;;;;;;;10.70;6.93;;;;;21.00;100879.00;;;;2054561;28;20219;-69
2024/02/28 03:40:42;;;;;;;11.10;7.30;;;;;21.00;100878.00;;;;2054864;28;20642;-69
2024/02/28 03:41:42;;;;;;;10.20;6.90;;;;;21.00;100878.00;;;;2052062;28;20207;-69
2024/02/28 03:42:42;;;;;;;10.40;7.00;;;;;21.00;100885.00;;;;2063800;28;20210;-69
2024/02/28 03:43:43;;;;;;;10.67;7.20;;;;;20.90;100886.00;;;;2061952;28;20274;-69
2024/02/28 03:44:43;;;;;;;11.50;7.90;;;;;20.90;100891.00;;;;2063527;28;20576;-69
2024/02/28 03:45:43;;;;;;;10.37;6.43;;;;;20.90;100817.00;;;;2061091;28;20590;-69
2024/02/28 03:46:44;;;;;;;10.33;6.90;;;;;21.00;100885.00;;;;2053349;28;20213;-69
2024/02/28 03:47:44;;;;;;;10.57;7.17;;;;;20.90;100890.00;;;;2055049;28;20716;-69
2024/02/28 03:48:45;;;;;;;10.67;7.13;;;;;21.00;100891.00;;;;2054516;28;20726;-69
2024/02/28 03:49:45;;;;;;;9.87;7.03;;;;;20.90;100882.00;;;;2063733;28;20214;-69
2024/02/28 03:50:45;;;;;;;10.23;6.83;;;;;20.90;100878.00;;;;2061587;28;20211;-69
2024/02/28 03:51:46;;;;;;;13.97;8.10;;;;;20.90;100882.00;;;;2058629;28;20210;-69
2024/02/28 03:52:46;;;;;;;11.63;8.00;;;;;20.90;100883.00;;;;2063016;28;20267;-69
2024/02/28 03:53:46;;;;;;;10.57;7.80;;;;;20.90;100877.00;;;;2062522;28;20223;-69
2024/02/28 03:54:47;;;;;;;11.90;7.20;;;;;20.90;100884.00;;;;2063138;28;20215;-69
2024/02/28 03:55:47;;;;;;;10.60;7.60;;;;;20.90;100851.00;;;;2063015;28;20203;-69
2024/02/28 03:56:47;;;;;;;11.50;7.93;;;;;20.90;100881.00;;;;2054160;28;20207;-69
2024/02/28 03:57:48;;;;;;;12.50;8.10;;;;;20.90;100884.00;;;;2063822;28;20214;-69
2024/02/28 03:58:48;;;;;;;13.40;8.03;;;;;20.90;100889.00;;;;2063112;28;20234;-69
2024/02/28 03:59:49;;;;;;;10.20;7.50;;;;;20.90;100896.00;;;;2063796;28;20714;-69
2024/02/28 04:00:49;;;;;;;12.83;8.67;;;;;20.90;100892.00;;;;2061069;28;21008;-69
2024/02/28 04:01:50;;;;;;;9.60;6.70;;;;;20.90;100893.00;;;;2054126;28;20218;-69
2024/02/28 04:02:50;;;;;;;10.07;7.10;;;;;20.90;100898.00;;;;2062319;28;20694;-69
2024/02/28 04:03:50;;;;;;;12.30;7.73;;;;;20.90;100900.00;;;;2063616;28;20762;-69
2024/02/28 04:04:51;;;;;;;10.40;7.00;;;;;20.90;100899.00;;;;2063375;28;20709;-69
2024/02/28 04:05:51;;;;;;;11.27;7.23;;;;;20.90;100906.00;;;;2063294;28;20686;-69
2024/02/28 04:06:51;;;;;;;10.77;7.30;;;;;20.90;100896.00;;;;2045512;28;20771;-69
2024/02/28 04:07:52;;;;;;;9.57;7.00;;;;;20.90;100900.00;;;;2053343;28;20703;-69
2024/02/28 04:08:52;;;;;;;9.97;6.77;;;;;20.90;100899.00;;;;2061156;28;20210;-69
2024/02/28 04:09:52;;;;;;;10.60;7.40;;;;;20.90;100896.00;;;;2063568;28;20207;-69
2024/02/28 04:10:53;;;;;;;11.10;8.33;;;;;20.90;100901.00;;;;2063202;28;20213;-69
2024/02/28 04:11:53;;;;;;;11.97;6.87;;;;;20.90;100897.00;;;;2053268;28;20214;-69
2024/02/28 04:12:54;;;;;;;9.87;7.10;;;;;20.90;100894.00;;;;2062692;28;20729;-69
2024/02/28 04:13:54;;;;;;;12.00;7.63;;;;;20.70;100830.00;;;;2060960;28;20257;-69
2024/02/28 04:14:54;;;;;;;12.03;7.90;;;;;20.90;100897.00;;;;2049924;28;20248;-69
2024/02/28 04:15:55;;;;;;;11.07;7.97;;;;;20.90;100895.00;;;;2050988;28;20236;-69
2024/02/28 04:16:56;;;;;;;12.10;8.27;;;;;20.80;100895.00;;;;2053935;28;20222;-69
2024/02/28 04:17:56;;;;;;;11.80;7.90;;;;;20.90;100901.00;;;;2054012;28;20469;-69
2024/02/28 04:18:56;;;;;;;11.70;7.87;;;;;20.80;100904.00;;;;2055296;28;20204;-69
2024/02/28 04:19:57;;;;;;;12.47;7.30;;;;;20.70;100908.00;;;;2063210;28;20203;-69
2024/02/28 04:20:58;;;;;;;12.33;7.90;;;;;20.90;100907.00;;;;2051115;28;20256;-69
2024/02/28 04:21:58;;;;;;;11.03;7.17;;;;;20.90;100899.00;;;;2048436;28;20215;-69
2024/02/28 04:22:58;;;;;;;10.40;7.43;;;;;20.80;100899.00;;;;2069722;28;20695;-69
2024/02/28 04:23:58;;;;;;;10.80;7.07;;;;;20.80;100895.00;;;;2065403;28;20741;-69
2024/02/28 04:24:59;;;;;;;12.67;7.93;;;;;20.80;100898.00;;;;2064016;28;20227;-69
2024/02/28 04:25:59;;;;;;;12.07;8.70;;;;;20.80;100900.00;;;;2053417;28;20218;-69
2024/02/28 04:27:00;;;;;;;12.53;8.13;;;;;20.80;100887.00;;;;2063237;28;20210;-69
2024/02/28 04:28:00;;;;;;;11.20;7.60;;;;;20.80;100888.00;;;;2055138;28;20250;-69
2024/02/28 04:29:02;;;;;;;10.60;7.60;;;;;20.90;100890.00;;;;2054600;28;20641;-69
2024/02/28 04:30:04;;;;;;;12.32;8.40;;;;;20.80;100892.00;;;;2063791;28;20891;-69
2024/02/28 04:31:04;;;;;;;12.05;8.02;;;;;20.80;100872.00;;;;2051007;28;20226;-69
2024/02/28 04:32:04;;;;;;;11.30;7.97;;;;;20.80;100895.00;;;;2053173;28;20206;-69
2024/02/28 04:33:05;;;;;;;11.43;8.17;;;;;20.80;100894.00;;;;2039133;29;20216;-69
2024/02/28 04:34:05;;;;;;;11.53;7.63;;;;;20.80;100888.00;;;;2040810;28;21202;-69
2024/02/28 04:35:06;;;;;;;13.40;8.47;;;;;20.80;100889.00;;;;2063877;28;20646;-69
2024/02/28 04:36:06;;;;;;;12.70;7.73;;;;;20.80;100888.00;;;;2053636;28;20628;-69
2024/02/28 04:37:07;;;;;;;13.77;7.60;;;;;20.80;100887.00;;;;2065371;28;21000;-69
2024/02/28 04:38:07;;;;;;;13.03;8.30;;;;;20.80;100846.00;;;;2063797;28;21508;-69
2024/02/28 04:39:07;;;;;;;13.20;7.73;;;;;20.90;100889.00;;;;2063980;28;20772;-69
2024/02/28 04:40:08;;;;;;;12.83;9.10;;;;;20.80;100857.00;;;;2060861;28;20222;-69
2024/02/28 04:41:09;;;;;;;12.05;7.70;;;;;20.80;100884.00;;;;2051052;28;20225;-69
2024/02/28 04:42:09;;;;;;;13.17;9.20;;;;;20.80;100890.00;;;;2048788;28;20806;-69
2024/02/28 04:43:09;;;;;;;11.60;7.90;;;;;20.90;100829.00;;;;2048220;28;20710;-69
2024/02/28 04:44:10;;;;;;;10.80;7.53;;;;;20.80;100900.00;;;;2048009;28;20688;-69
2024/02/28 04:45:10;;;;;;;9.73;7.00;;;;;20.80;100903.00;;;;2048810;28;21010;-69
2024/02/28 04:46:10;;;;;;;12.83;8.30;;;;;20.80;100856.00;;;;2038612;28;20630;-69
2024/02/28 04:47:11;;;;;;;10.77;7.53;;;;;20.80;100907.00;;;;2052206;28;20222;-69
2024/02/28 04:48:11;;;;;;;11.30;8.00;;;;;20.80;100904.00;;;;2064072;28;20218;-69
2024/02/28 04:49:11;;;;;;;13.80;8.43;;;;;20.60;100888.00;;;;2056325;28;20230;-69
2024/02/28 04:50:12;;;;;;;11.27;7.80;;;;;20.80;100897.00;;;;2055758;28;20223;-69
2024/02/28 04:51:15;;;;;;;11.33;7.43;;;;;20.80;100897.00;;;;2053471;28;20214;-69
2024/02/28 04:52:15;;;;;;;12.43;8.02;;;;;20.80;100904.00;;;;2065292;28;20277;-69
2024/02/28 04:53:16;;;;;;;12.30;8.10;;;;;20.80;100898.00;;;;2058084;28;20988;-69
2024/02/28 04:54:16;;;;;;;12.47;7.30;;;;;20.80;100896.00;;;;2060406;28;20281;-69
2024/02/28 04:55:16;;;;;;;13.07;7.93;;;;;20.70;100908.00;;;;2064608;28;20207;-69
2024/02/28 04:56:17;;;;;;;13.03;8.30;;;;;20.80;100903.00;;;;2053733;28;20789;-69
2024/02/28 04:57:17;;;;;;;11.90;7.73;;;;;20.80;100904.00;;;;2065277;28;20690;-69